Time;durP1;ratioP1;P1;durP2;ratioP2;P2;SDS_P1;SDS_P2;PMS_P1;PMS_P2;Temp;Humidity;BMP_temperature;BMP_pressure;BME280_temperature;BME280_humidity;BME280_pressure;Samples;Min_cycle;Max_cycle;Signal;HPM_P1;HPM_P2
2021/06/28 00:00:11;;;;;;;7.83;6.83;;;19.20;99.90;;;;;;5044809;28;20419;-81
2021/06/28 00:02:39;;;;;;;8.33;7.43;;;19.20;99.90;;;;;;5044741;28;20808;-81
2021/06/28 00:05:10;;;;;;;7.50;6.70;;;19.20;99.90;;;;;;5045181;28;20520;-82
2021/06/28 00:07:39;;;;;;;10.03;7.60;;;19.10;99.90;;;;;;5045722;28;20432;-80
2021/06/28 00:10:10;;;;;;;9.00;6.47;;;19.10;99.90;;;;;;5046097;28;20476;-82
2021/06/28 00:12:39;;;;;;;9.13;8.07;;;19.00;99.90;;;;;;5045138;28;20453;-81
2021/06/28 00:15:10;;;;;;;8.07;7.27;;;18.90;99.90;;;;;;5046392;28;20405;-81
2021/06/28 00:17:39;;;;;;;9.73;6.50;;;18.90;99.90;;;;;;5044186;28;20447;-80
2021/06/28 00:20:08;;;;;;;6.70;6.10;;;18.70;99.90;;;;;;5045518;28;20479;-81
2021/06/28 00:22:37;;;;;;;7.90;7.07;;;18.70;99.90;;;;;;5044687;28;20445;-82
2021/06/28 00:25:09;;;;;;;8.53;7.67;;;18.70;99.90;;;;;;5046503;28;20399;-81
2021/06/28 00:27:39;;;;;;;8.90;7.37;;;18.70;99.90;;;;;;5045126;28;20399;-81
2021/06/28 00:30:28;;;;;;;6.53;5.90;;;18.80;99.90;;;;;;5042967;28;20410;-80
2021/06/28 00:32:56;;;;;;;8.33;6.83;;;18.80;99.90;;;;;;5043171;28;20450;-80
2021/06/28 00:35:24;;;;;;;7.77;7.00;;;18.80;99.90;;;;;;5043832;28;20447;-80
2021/06/28 00:37:53;;;;;;;6.90;6.30;;;18.80;99.90;;;;;;5043560;28;20478;-80
2021/06/28 00:40:21;;;;;;;8.80;7.50;;;18.80;99.90;;;;;;5045173;28;20427;-81
2021/06/28 00:42:51;;;;;;;8.30;7.50;;;18.70;99.90;;;;;;5044956;28;20445;-81
2021/06/28 00:45:22;;;;;;;8.60;7.70;;;18.60;99.90;;;;;;5046239;28;20379;-81
2021/06/28 00:47:52;;;;;;;9.90;6.90;;;18.60;99.90;;;;;;5049662;28;20412;-80
2021/06/28 00:50:22;;;;;;;8.20;7.20;;;18.70;99.90;;;;;;5055847;28;20434;-81
2021/06/28 00:52:55;;;;;;;9.33;7.57;;;18.60;99.90;;;;;;5042030;28;20426;-81
2021/06/28 00:55:23;;;;;;;7.93;7.10;;;18.60;99.90;;;;;;5043415;28;20501;-80
2021/06/28 00:57:53;;;;;;;10.40;6.97;;;18.60;99.90;;;;;;5043254;28;20412;-81
2021/06/28 01:00:22;;;;;;;8.03;7.33;;;18.60;99.90;;;;;;5042132;28;20554;-81
2021/06/28 01:02:51;;;;;;;8.50;7.60;;;18.60;99.90;;;;;;5041199;28;20442;-80
2021/06/28 01:05:21;;;;;;;10.00;7.20;;;18.60;99.90;;;;;;5044947;28;20436;-81
2021/06/28 01:07:50;;;;;;;9.13;7.20;;;18.60;99.90;;;;;;5046420;28;20406;-81
2021/06/28 01:10:20;;;;;;;7.77;7.07;;;18.60;99.90;;;;;;5044150;28;20449;-81
2021/06/28 01:12:51;;;;;;;8.30;7.50;;;18.50;99.90;;;;;;5042914;28;20446;-81
2021/06/28 01:15:21;;;;;;;7.97;7.20;;;18.50;99.90;;;;;;5048329;28;20523;-80
2021/06/28 01:17:50;;;;;;;7.80;7.10;;;18.50;99.90;;;;;;5047873;28;20417;-80
2021/06/28 01:20:20;;;;;;;6.90;6.20;;;18.50;99.90;;;;;;5046821;28;20437;-80
2021/06/28 01:22:51;;;;;;;8.00;7.20;;;18.50;99.90;;;;;;5045285;28;20461;-80
2021/06/28 01:25:24;;;;;;;7.00;6.40;;;18.60;99.90;;;;;;5045486;28;20446;-80
2021/06/28 01:27:53;;;;;;;9.33;7.60;;;18.50;99.90;;;;;;5046485;28;20491;-80
2021/06/28 01:30:26;;;;;;;8.53;7.73;;;18.50;99.90;;;;;;5050650;28;20424;-81
2021/06/28 01:32:54;;;;;;;11.00;7.90;;;18.40;99.90;;;;;;5059844;28;20435;-83
2021/06/28 01:35:24;;;;;;;8.90;6.87;;;18.30;99.90;;;;;;5060203;28;20417;-83
2021/06/28 01:37:52;;;;;;;8.27;7.50;;;18.20;99.90;;;;;;5059964;28;20452;-82
2021/06/28 01:40:21;;;;;;;8.13;7.33;;;18.30;99.90;;;;;;5060457;28;20408;-82
2021/06/28 01:42:51;;;;;;;8.60;7.77;;;18.30;99.90;;;;;;5059868;28;20423;-83
2021/06/28 01:45:21;;;;;;;6.90;6.10;;;18.30;99.90;;;;;;5059831;28;20421;-82
2021/06/28 01:47:50;;;;;;;8.53;7.73;;;18.20;99.90;;;;;;5059783;28;20490;-82
2021/06/28 01:50:21;;;;;;;10.30;7.27;;;18.30;99.90;;;;;;5060460;28;20462;-82
2021/06/28 01:52:50;;;;;;;7.97;7.13;;;18.30;99.90;;;;;;5060349;28;20428;-82
2021/06/28 01:55:21;;;;;;;7.90;6.27;;;18.30;99.90;;;;;;5059734;28;20447;-83
2021/06/28 01:57:52;;;;;;;7.37;6.73;;;18.20;99.90;;;;;;5059870;28;20406;-82
2021/06/28 02:00:23;;;;;;;12.47;7.70;;;18.10;99.90;;;;;;5057826;28;20422;-80
2021/06/28 02:02:59;;;;;;;7.30;6.60;;;18.00;99.90;;;;;;5050879;28;20438;-81
2021/06/28 02:05:29;;;;;;;8.73;7.30;;;18.10;99.90;;;;;;5048860;28;20436;-81
2021/06/28 02:07:57;;;;;;;9.50;8.60;;;18.10;99.90;;;;;;5047941;28;20421;-81
2021/06/28 02:10:27;;;;;;;6.90;6.30;;;18.10;99.90;;;;;;5049226;28;20456;-81
2021/06/28 02:12:55;;;;;;;7.60;6.90;;;18.10;99.90;;;;;;5048801;28;20527;-82
2021/06/28 02:15:26;;;;;;;9.60;8.20;;;18.10;99.90;;;;;;5048517;28;20470;-81
2021/06/28 02:17:54;;;;;;;6.93;6.23;;;18.10;99.90;;;;;;5048092;28;20482;-81
2021/06/28 02:20:23;;;;;;;9.13;7.10;;;18.00;99.90;;;;;;5050368;28;20421;-81
2021/06/28 02:22:52;;;;;;;12.50;7.33;;;18.00;99.90;;;;;;5048913;28;20456;-80
2021/06/28 02:25:26;;;;;;;8.23;6.70;;;18.00;99.90;;;;;;5067276;28;20445;-81
2021/06/28 02:27:55;;;;;;;7.40;6.20;;;18.00;99.90;;;;;;5055404;28;20391;-80
2021/06/28 02:30:24;;;;;;;7.90;7.10;;;18.00;99.90;;;;;;5058624;28;20385;-80
2021/06/28 02:32:52;;;;;;;7.47;6.00;;;17.80;99.90;;;;;;5054643;28;20441;-81
2021/06/28 02:35:20;;;;;;;8.20;7.40;;;17.80;99.90;;;;;;5048228;28;20470;-80
2021/06/28 02:37:49;;;;;;;8.77;7.83;;;17.80;99.90;;;;;;5048661;28;20428;-81
2021/06/28 02:40:17;;;;;;;9.33;7.97;;;17.80;99.90;;;;;;5047928;28;20447;-81
2021/06/28 02:42:46;;;;;;;9.43;6.57;;;17.90;99.90;;;;;;5050671;28;20476;-81
2021/06/28 02:45:15;;;;;;;7.57;6.83;;;18.00;99.90;;;;;;5058142;28;20420;-81
2021/06/28 02:47:43;;;;;;;6.97;6.27;;;18.00;99.90;;;;;;5057061;28;20718;-80
2021/06/28 02:50:14;;;;;;;6.87;6.20;;;18.00;99.90;;;;;;5057763;28;20432;-82
2021/06/28 02:52:43;;;;;;;7.97;7.17;;;18.00;99.90;;;;;;5053832;28;20411;-82
2021/06/28 02:55:12;;;;;;;8.13;7.43;;;18.00;99.90;;;;;;5050649;28;20509;-79
2021/06/28 02:57:41;;;;;;;9.23;7.57;;;17.90;99.90;;;;;;5049465;28;20436;-80
2021/06/28 03:00:13;;;;;;;8.90;7.50;;;17.90;99.90;;;;;;5051205;28;20383;-80
2021/06/28 03:02:42;;;;;;;9.40;7.07;;;17.90;99.90;;;;;;5052165;28;20482;-80
2021/06/28 03:05:12;;;;;;;9.23;8.37;;;17.80;99.90;;;;;;5051672;28;20391;-81
2021/06/28 03:07:40;;;;;;;9.00;8.00;;;17.80;99.90;;;;;;5047857;28;20467;-81
2021/06/28 03:10:11;;;;;;;8.70;7.90;;;17.80;99.90;;;;;;5048526;28;20849;-80
2021/06/28 03:12:40;;;;;;;8.40;7.13;;;17.70;99.90;;;;;;5048327;28;20429;-81
2021/06/28 03:15:13;;;;;;;9.83;7.40;;;17.70;99.90;;;;;;5046743;28;20446;-82
2021/06/28 03:17:42;;;;;;;10.10;8.07;;;17.70;99.90;;;;;;5048463;28;20915;-82
2021/06/28 03:20:13;;;;;;;9.57;8.63;;;17.70;99.90;;;;;;5048047;28;20459;-82
2021/06/28 03:22:46;;;;;;;8.30;7.37;;;17.70;99.90;;;;;;5046825;28;20539;-82
2021/06/28 03:25:17;;;;;;;9.60;7.90;;;17.70;99.90;;;;;;5048227;28;20486;-82
2021/06/28 03:27:45;;;;;;;8.33;7.40;;;17.70;99.90;;;;;;5049860;28;20471;-83
2021/06/28 03:30:17;;;;;;;9.60;7.53;;;17.80;99.90;;;;;;5050161;28;20447;-81
2021/06/28 03:32:46;;;;;;;8.90;8.00;;;17.90;99.90;;;;;;5050737;28;20461;-81
2021/06/28 03:35:14;;;;;;;9.53;8.30;;;17.90;99.90;;;;;;5051722;28;20798;-82
2021/06/28 03:37:43;;;;;;;9.20;7.73;;;18.00;99.90;;;;;;5050531;28;20564;-82
2021/06/28 03:40:13;;;;;;;11.10;9.27;;;18.10;99.90;;;;;;5050190;28;20491;-81
2021/06/28 03:42:42;;;;;;;8.83;8.03;;;18.50;99.90;;;;;;5050851;28;20459;-82
2021/06/28 03:45:13;;;;;;;8.43;7.53;;;19.30;99.90;;;;;;5050799;28;20486;-81
2021/06/28 03:47:42;;;;;;;7.43;6.63;;;20.50;99.90;;;;;;5053526;28;20390;-80
2021/06/28 03:50:13;;;;;;;9.57;8.50;;;22.10;99.90;;;;;;5053193;28;20440;-81
2021/06/28 03:52:41;;;;;;;9.37;8.37;;;23.40;99.90;;;;;;5053786;28;20479;-80
2021/06/28 03:55:10;;;;;;;8.00;7.20;;;24.40;99.90;;;;;;5054554;28;20431;-81
2021/06/28 03:57:39;;;;;;;8.60;7.70;;;25.10;99.90;;;;;;5054327;28;20410;-82
2021/06/28 04:00:12;;;;;;;9.67;6.77;;;25.70;99.90;;;;;;5048318;28;21053;-82
2021/06/28 04:02:43;;;;;;;7.63;6.83;;;26.20;99.90;;;;;;5047226;28;20484;-81
2021/06/28 04:05:14;;;;;;;10.50;8.87;;;26.70;99.90;;;;;;5046574;28;20772;-82
2021/06/28 04:07:42;;;;;;;9.80;7.07;;;26.90;99.90;;;;;;5046624;28;20458;-82
2021/06/28 04:10:15;;;;;;;8.13;7.33;;;27.10;99.90;;;;;;5048370;28;20495;-82
2021/06/28 04:12:44;;;;;;;9.57;7.57;;;27.60;99.90;;;;;;5053068;28;20507;-81
2021/06/28 04:15:13;;;;;;;8.43;7.70;;;28.10;99.90;;;;;;5052031;28;20448;-81
2021/06/28 04:17:45;;;;;;;8.13;7.40;;;27.70;99.90;;;;;;5051625;28;20446;-81
2021/06/28 04:20:15;;;;;;;11.60;7.50;;;28.30;99.90;;;;;;5053279;28;20428;-82
2021/06/28 04:22:44;;;;;;;9.33;7.87;;;29.20;99.90;;;;;;5043313;28;20478;-82
2021/06/28 04:25:15;;;;;;;7.80;6.70;;;29.60;99.90;;;;;;5042268;28;20523;-82
2021/06/28 04:27:43;;;;;;;8.63;7.73;;;29.70;99.90;;;;;;5042880;28;20439;-80
2021/06/28 04:30:13;;;;;;;8.13;7.30;;;29.50;99.90;;;;;;5042272;28;20819;-81
2021/06/28 04:32:44;;;;;;;11.20;8.57;;;29.30;99.90;;;;;;5059780;23;20457;-81
2021/06/28 04:35:15;;;;;;;7.30;6.60;;;29.30;99.90;;;;;;5040287;28;20516;-81
2021/06/28 04:37:44;;;;;;;8.30;7.57;;;30.10;99.90;;;;;;5025306;28;20523;-81
2021/06/28 04:40:15;;;;;;;7.43;6.63;;;31.00;99.90;;;;;;5025424;28;20435;-78
2021/06/28 04:42:43;;;;;;;8.00;7.20;;;31.90;99.90;;;;;;5038157;28;20498;-81
2021/06/28 04:45:13;;;;;;;8.10;7.40;;;32.30;99.90;;;;;;5038490;28;20500;-81
2021/06/28 04:47:43;;;;;;;7.63;6.63;;;32.80;99.90;;;;;;5038706;28;20413;-81
2021/06/28 04:50:13;;;;;;;6.63;5.67;;;33.00;99.90;;;;;;5037695;28;20405;-82
2021/06/28 04:52:41;;;;;;;5.47;4.97;;;33.10;99.90;;;;;;5038127;28;20954;-81
2021/06/28 04:55:13;;;;;;;5.57;5.07;;;33.00;99.90;;;;;;5038617;28;20405;-81
2021/06/28 04:57:43;;;;;;;8.73;5.80;;;33.20;99.90;;;;;;5039133;28;20479;-81
2021/06/28 05:00:13;;;;;;;5.90;5.40;;;33.40;99.90;;;;;;5037830;28;20419;-81
2021/06/28 05:02:43;;;;;;;6.47;5.27;;;33.50;99.90;;;;;;5038700;28;20961;-82
2021/06/28 05:05:13;;;;;;;5.60;5.10;;;33.60;99.90;;;;;;5038723;28;20408;-82
2021/06/28 05:07:43;;;;;;;6.13;5.53;;;34.10;99.90;;;;;;5039341;28;20428;-81
2021/06/28 05:10:13;;;;;;;6.13;5.53;;;35.10;99.90;;;;;;5038489;28;20427;-81
2021/06/28 05:12:42;;;;;;;5.90;5.27;;;36.10;99.90;;;;;;5039351;28;20447;-82
2021/06/28 05:15:12;;;;;;;5.70;5.13;;;36.80;99.90;;;;;;5038233;28;20440;-82
2021/06/28 05:17:41;;;;;;;5.60;5.10;;;36.90;99.90;;;;;;5039015;28;20420;-82
2021/06/28 05:20:12;;;;;;;4.93;4.53;;;37.00;99.90;;;;;;5040573;28;20809;-82
2021/06/28 05:22:41;;;;;;;6.27;4.53;;;37.00;99.90;;;;;;5020410;28;20529;-82
2021/06/28 05:25:12;;;;;;;4.77;4.40;;;36.50;99.90;;;;;;5040272;28;20454;-81
2021/06/28 05:27:41;;;;;;;6.80;5.20;;;36.60;99.90;;;;;;5043626;28;20417;-81
2021/06/28 05:30:11;;;;;;;4.47;4.07;;;36.20;99.90;;;;;;5042430;28;20519;-81
2021/06/28 05:32:40;;;;;;;6.23;5.60;;;36.10;99.90;;;;;;5039809;28;20459;-81
2021/06/28 05:35:09;;;;;;;4.83;4.43;;;35.80;99.90;;;;;;5037822;28;20420;-81
2021/06/28 05:37:40;;;;;;;5.30;4.90;;;36.30;99.90;;;;;;5041318;28;20470;-79
2021/06/28 05:40:10;;;;;;;5.10;4.60;;;34.70;99.90;;;;;;5041669;28;20439;-79
2021/06/28 05:42:39;;;;;;;5.43;4.93;;;32.90;99.90;;;;;;5043598;28;20468;-79
2021/06/28 05:45:09;;;;;;;5.33;4.83;;;30.80;99.90;;;;;;5043716;28;20487;-78
2021/06/28 05:47:37;;;;;;;5.60;4.80;;;29.00;99.90;;;;;;5025584;28;20943;-78
2021/06/28 05:50:07;;;;;;;4.97;4.53;;;27.60;99.90;;;;;;5045175;28;20420;-79
2021/06/28 05:52:35;;;;;;;6.07;4.67;;;26.70;99.90;;;;;;5045180;28;20462;-80
2021/06/28 05:55:06;;;;;;;5.80;5.30;;;26.10;99.90;;;;;;5048516;28;20416;-78
2021/06/28 05:57:34;;;;;;;6.20;5.20;;;25.60;99.90;;;;;;5023881;28;20436;-80
2021/06/28 06:00:02;;;;;;;5.33;4.87;;;25.40;99.90;;;;;;5049782;28;20425;-81
2021/06/28 06:02:39;;;;;;;6.57;4.50;;;25.20;99.90;;;;;;5051544;28;20411;-81
2021/06/28 06:05:09;;;;;;;7.27;4.30;;;25.20;99.90;;;;;;5049831;28;20889;-79
2021/06/28 06:07:38;;;;;;;5.57;4.83;;;25.00;99.90;;;;;;5038842;28;20432;-79
2021/06/28 06:10:11;;;;;;;7.80;5.33;;;25.00;99.90;;;;;;5021155;28;20439;-81
2021/06/28 06:12:39;;;;;;;6.30;5.70;;;24.90;99.90;;;;;;5039525;28;20444;-81
2021/06/28 06:15:13;;;;;;;5.90;5.40;;;24.90;99.90;;;;;;5039456;28;20402;-81
2021/06/28 06:17:42;;;;;;;5.17;4.70;;;24.90;99.90;;;;;;5040121;28;20827;-80
2021/06/28 06:20:11;;;;;;;5.73;4.87;;;25.20;99.90;;;;;;5039168;28;20482;-80
2021/06/28 06:22:39;;;;;;;4.77;4.37;;;25.40;99.90;;;;;;5038742;28;20448;-80
2021/06/28 06:25:10;;;;;;;5.30;4.80;;;25.40;99.90;;;;;;5038336;28;20606;-80
2021/06/28 06:27:38;;;;;;;6.13;4.93;;;25.60;99.90;;;;;;5038841;28;20902;-80
2021/06/28 06:30:08;;;;;;;5.17;4.67;;;25.60;99.90;;;;;;5039207;28;20841;-81
2021/06/28 06:32:51;;;;;;;8.53;4.83;;;25.60;99.90;;;;;;5038175;28;20517;-80
2021/06/28 06:35:21;;;;;;;5.87;5.40;;;25.70;99.90;;;;;;5021699;28;20472;-81
2021/06/28 06:37:53;;;;;;;6.90;5.53;;;25.70;99.90;;;;;;5020543;28;20475;-81
2021/06/28 06:40:23;;;;;;;5.70;4.60;;;25.80;99.90;;;;;;5038192;28;20415;-80
2021/06/28 06:42:52;;;;;;;5.67;5.17;;;25.90;99.90;;;;;;5018990;28;20468;-80
2021/06/28 06:45:21;;;;;;;5.97;5.40;;;25.90;99.90;;;;;;5037367;28;20474;-79
2021/06/28 06:47:49;;;;;;;5.80;5.23;;;25.90;99.90;;;;;;5037972;28;20913;-79
2021/06/28 06:50:18;;;;;;;5.60;5.20;;;26.00;99.90;;;;;;5037896;28;20416;-80
2021/06/28 06:52:47;;;;;;;5.40;4.80;;;26.10;99.90;;;;;;5019844;28;20447;-80
2021/06/28 06:55:17;;;;;;;6.00;5.43;;;26.20;99.90;;;;;;5040568;28;20802;-80
2021/06/28 06:57:47;;;;;;;6.70;6.10;;;26.30;99.90;;;;;;5038417;28;20796;-81
2021/06/28 07:00:18;;;;;;;6.90;5.63;;;26.40;99.90;;;;;;5038336;28;21012;-80
2021/06/28 07:02:46;;;;;;;6.47;5.87;;;26.50;99.90;;;;;;5018781;28;20873;-79
2021/06/28 07:05:17;;;;;;;6.40;5.80;;;26.60;99.90;;;;;;5020201;28;20475;-80
2021/06/28 07:07:45;;;;;;;5.90;5.33;;;26.60;99.90;;;;;;5038776;28;20420;-79
2021/06/28 07:10:15;;;;;;;6.73;6.13;;;26.60;99.90;;;;;;5037618;28;20420;-80
2021/06/28 07:12:44;;;;;;;7.93;6.50;;;26.70;99.90;;;;;;5019753;28;20459;-80
2021/06/28 07:15:16;;;;;;;7.30;5.93;;;26.60;99.90;;;;;;5029219;28;20436;-81
2021/06/28 07:17:45;;;;;;;6.57;6.03;;;26.70;99.90;;;;;;5024173;28;20483;-81
2021/06/28 07:20:15;;;;;;;7.80;7.10;;;26.70;99.90;;;;;;5042314;28;20523;-81
2021/06/28 07:22:44;;;;;;;6.70;6.10;;;26.70;99.90;;;;;;5044968;28;20451;-80
2021/06/28 07:25:14;;;;;;;6.83;5.90;;;26.80;99.90;;;;;;5018792;28;21097;-80
2021/06/28 07:27:43;;;;;;;6.83;5.90;;;26.80;99.90;;;;;;5041613;28;20420;-80
2021/06/28 07:30:15;;;;;;;7.13;6.03;;;27.10;99.90;;;;;;5047234;28;20439;-80
2021/06/28 07:32:44;;;;;;;7.67;7.00;;;27.20;99.90;;;;;;5034766;28;20491;-81
2021/06/28 07:35:14;;;;;;;6.10;5.50;;;27.40;99.90;;;;;;5051951;28;20408;-81
2021/06/28 07:37:42;;;;;;;6.67;6.10;;;27.60;99.90;;;;;;5033739;28;20440;-79
2021/06/28 07:40:13;;;;;;;10.10;5.43;;;27.80;99.90;;;;;;5044224;28;20790;-82
2021/06/28 07:42:42;;;;;;;7.10;6.43;;;27.90;99.90;;;;;;5039887;28;20444;-81
2021/06/28 07:45:11;;;;;;;6.50;5.90;;;27.70;99.90;;;;;;5041706;28;20845;-81
2021/06/28 07:47:41;;;;;;;6.20;5.60;;;27.60;99.90;;;;;;5041634;28;20428;-81
2021/06/28 07:50:10;;;;;;;4.87;4.47;;;27.80;99.90;;;;;;5050326;28;20445;-79
2021/06/28 07:52:39;;;;;;;7.43;5.53;;;27.90;99.90;;;;;;5051624;28;20584;-81
2021/06/28 07:55:19;;;;;;;6.30;5.43;;;27.80;99.90;;;;;;5051678;28;20463;-79
2021/06/28 07:57:47;;;;;;;6.63;6.03;;;27.70;99.90;;;;;;5047235;28;20420;-82
2021/06/28 08:00:17;;;;;;;8.30;5.30;;;27.80;99.90;;;;;;5047671;28;20775;-82
2021/06/28 08:02:47;;;;;;;6.33;5.77;;;27.90;99.90;;;;;;5039064;28;20465;-81
2021/06/28 08:05:16;;;;;;;6.90;6.30;;;27.80;99.90;;;;;;5039418;28;20471;-80
2021/06/28 08:07:44;;;;;;;5.37;4.87;;;27.80;99.90;;;;;;5040618;28;20452;-81
2021/06/28 08:10:15;;;;;;;5.57;5.03;;;27.90;99.90;;;;;;5043022;28;20432;-80
2021/06/28 08:12:45;;;;;;;5.80;5.10;;;27.90;99.90;;;;;;5044316;28;20464;-80
2021/06/28 08:15:18;;;;;;;5.60;5.10;;;28.10;99.90;;;;;;5042623;28;20408;-80
2021/06/28 08:17:48;;;;;;;5.87;5.37;;;28.30;99.90;;;;;;5042976;28;20416;-80
2021/06/28 08:20:18;;;;;;;5.33;4.77;;;28.30;99.90;;;;;;5044106;28;20424;-79
2021/06/28 08:22:47;;;;;;;5.70;5.20;;;28.40;99.90;;;;;;5044655;28;20444;-81
2021/06/28 08:25:16;;;;;;;5.50;5.00;;;28.40;99.90;;;;;;5028023;28;20464;-82
2021/06/28 08:27:45;;;;;;;5.13;4.73;;;28.30;99.90;;;;;;5038823;28;20427;-81
2021/06/28 08:30:14;;;;;;;6.50;5.23;;;28.50;99.90;;;;;;5040462;28;20423;-81
2021/06/28 08:32:43;;;;;;;4.57;3.67;;;28.70;99.90;;;;;;5021339;28;20464;-81
2021/06/28 08:35:12;;;;;;;4.40;4.00;;;28.80;99.90;;;;;;5038082;28;20443;-81
2021/06/28 08:37:40;;;;;;;5.93;5.43;;;28.90;99.90;;;;;;5039924;28;20790;-80
2021/06/28 08:40:10;;;;;;;9.87;5.17;;;29.00;99.90;;;;;;5040168;28;20416;-80
2021/06/28 08:42:39;;;;;;;5.97;5.40;;;29.00;99.90;;;;;;5036641;28;20436;-81
2021/06/28 08:45:09;;;;;;;5.63;5.13;;;29.00;99.90;;;;;;5037282;28;20674;-81
2021/06/28 08:47:37;;;;;;;5.90;5.30;;;29.00;99.90;;;;;;5019832;28;20428;-81
2021/06/28 08:50:09;;;;;;;5.17;4.63;;;29.10;99.90;;;;;;5039067;28;20424;-81
2021/06/28 08:52:42;;;;;;;4.90;4.50;;;29.40;99.90;;;;;;5037869;28;20983;-81
2021/06/28 08:55:12;;;;;;;6.13;5.60;;;29.50;99.90;;;;;;5038361;28;20435;-81
2021/06/28 08:57:40;;;;;;;4.70;4.30;;;29.70;99.90;;;;;;5039252;28;20424;-81
2021/06/28 09:00:11;;;;;;;6.70;4.37;;;29.70;99.90;;;;;;5040802;28;20764;-82
2021/06/28 09:02:42;;;;;;;3.87;3.57;;;29.70;99.90;;;;;;5039351;28;20451;-81
2021/06/28 09:05:12;;;;;;;4.90;4.40;;;29.70;99.90;;;;;;5037408;28;20514;-81
2021/06/28 09:07:42;;;;;;;7.80;4.80;;;29.80;99.90;;;;;;5039135;28;20427;-81
2021/06/28 09:10:33;;;;;;;5.70;5.20;;;30.10;99.90;;;;;;5022277;28;20490;-81
2021/06/28 09:13:02;;;;;;;6.90;5.27;;;29.90;99.90;;;;;;5040657;28;20462;-81
2021/06/28 09:15:38;;;;;;;6.50;5.80;;;29.10;99.90;;;;;;5022346;28;20543;-81
2021/06/28 09:18:21;;;;;;;11.40;4.87;;;28.90;99.90;;;;;;5037614;28;20763;-82
2021/06/28 09:20:51;;;;;;;5.30;4.80;;;29.10;99.90;;;;;;5037953;28;20512;-82
2021/06/28 09:23:23;;;;;;;4.90;4.50;;;29.40;99.90;;;;;;5037612;28;20857;-81
2021/06/28 09:25:54;;;;;;;6.60;5.20;;;30.00;99.90;;;;;;5019335;28;20472;-81
2021/06/28 09:28:34;;;;;;;6.00;5.50;;;30.50;99.90;;;;;;5037623;28;20417;-80
2021/06/28 09:31:02;;;;;;;5.83;5.33;;;30.70;99.90;;;;;;5037909;28;20428;-82
2021/06/28 09:33:31;;;;;;;10.10;9.20;;;30.60;99.90;;;;;;5037795;28;20501;-81
2021/06/28 09:36:00;;;;;;;6.00;5.50;;;30.50;99.90;;;;;;5040170;28;20408;-81
2021/06/28 09:38:38;;;;;;;5.23;4.73;;;29.90;99.90;;;;;;5041950;28;20511;-82
2021/06/28 09:41:23;;;;;;;4.50;4.10;;;29.50;99.90;;;;;;5041881;28;20436;-81
2021/06/28 09:43:52;;;;;;;6.83;6.20;;;29.10;99.90;;;;;;5042417;28;20863;-82
2021/06/28 09:46:22;;;;;;;5.17;4.77;;;29.20;99.90;;;;;;5042227;28;20463;-81
2021/06/28 09:48:52;;;;;;;7.00;4.70;;;29.10;99.90;;;;;;5043124;28;20423;-78
2021/06/28 09:51:23;;;;;;;6.20;5.60;;;28.90;99.90;;;;;;5040924;28;20424;-82
2021/06/28 09:53:55;;;;;;;8.17;4.00;;;28.80;99.90;;;;;;5041350;28;20475;-82
2021/06/28 09:56:35;;;;;;;4.80;4.40;;;29.00;99.90;;;;;;5045615;28;20420;-82
2021/06/28 09:59:22;;;;;;;4.77;4.37;;;29.40;99.90;;;;;;5047725;28;20424;-80
2021/06/28 10:01:52;;;;;;;5.63;4.60;;;30.00;99.90;;;;;;5046696;28;20421;-79
2021/06/28 10:04:43;;;;;;;4.53;4.13;;;30.40;99.90;;;;;;5027439;28;20456;-80
2021/06/28 10:07:25;;;;;;;4.80;4.40;;;30.90;99.90;;;;;;5044533;28;20424;-80
2021/06/28 10:10:24;;;;;;;5.30;4.80;;;31.30;99.90;;;;;;5046729;28;20417;-80
2021/06/28 10:13:07;;;;;;;4.57;4.00;;;31.70;99.90;;;;;;5012641;28;20543;-81
2021/06/28 10:15:38;;;;;;;5.57;5.07;;;31.70;99.90;;;;;;5043475;28;20930;-80
2021/06/28 10:18:09;;;;;;;4.83;4.43;;;31.50;99.90;;;;;;5040039;28;20421;-81
2021/06/28 10:20:40;;;;;;;5.67;4.83;;;31.60;99.90;;;;;;5039840;28;20409;-81
2021/06/28 10:23:10;;;;;;;5.50;5.00;;;31.70;99.90;;;;;;5022887;28;20530;-80
2021/06/28 10:25:39;;;;;;;6.27;5.57;;;31.30;99.90;;;;;;5039492;28;20543;-81
2021/06/28 10:28:07;;;;;;;6.27;5.77;;;30.90;99.90;;;;;;5039058;28;20421;-82
2021/06/28 10:30:36;;;;;;;5.07;4.57;;;30.70;99.90;;;;;;5040374;28;20919;-82
2021/06/28 10:33:09;;;;;;;5.90;5.40;;;30.60;99.90;;;;;;5059064;23;21643;-71
2021/06/28 10:35:39;;;;;;;5.63;4.93;;;30.70;99.90;;;;;;5027895;28;20459;-71
2021/06/28 10:38:09;;;;;;;5.73;5.23;;;30.70;99.90;;;;;;5033014;28;20471;-72
2021/06/28 10:40:52;;;;;;;5.47;4.77;;;30.70;99.90;;;;;;5032748;28;21066;-71
2021/06/28 10:43:29;;;;;;;6.37;5.23;;;30.80;99.90;;;;;;5032760;28;20943;-71
2021/06/28 10:45:57;;;;;;;5.37;4.97;;;30.90;99.90;;;;;;5032406;28;20472;-71
2021/06/28 10:48:28;;;;;;;5.80;5.23;;;31.10;99.90;;;;;;5032732;28;20428;-72
2021/06/28 10:51:04;;;;;;;4.70;4.30;;;31.40;99.90;;;;;;5032164;28;20444;-71
2021/06/28 10:54:04;;;;;;;4.90;4.40;;;31.70;99.90;;;;;;5032413;28;20490;-71
2021/06/28 10:56:51;;;;;;;4.90;4.50;;;32.20;99.90;;;;;;5032398;28;20419;-72
2021/06/28 10:59:38;;;;;;;5.57;3.83;;;32.80;99.90;;;;;;5032615;28;20433;-73
2021/06/28 11:02:08;;;;;;;4.40;4.00;;;33.10;99.90;;;;;;5030864;28;20473;-73
2021/06/28 11:04:40;;;;;;;4.43;4.03;;;33.20;99.90;;;;;;5032359;28;20429;-74
2021/06/28 11:07:21;;;;;;;3.70;3.40;;;32.90;99.90;;;;;;5033095;28;20471;-72
2021/06/28 11:09:51;;;;;;;3.97;3.57;;;32.90;99.90;;;;;;5015264;28;20438;-72
2021/06/28 11:12:28;;;;;;;11.00;4.07;;;32.60;99.90;;;;;;5033317;28;20454;-70
2021/06/28 11:15:01;;;;;;;5.67;5.17;;;32.70;99.90;;;;;;5015144;28;20788;-70
2021/06/28 11:17:42;;;;;;;5.30;4.90;;;32.80;99.90;;;;;;5032850;28;20806;-71
2021/06/28 11:20:25;;;;;;;5.03;4.60;;;32.70;99.90;;;;;;5032010;28;20427;-71
2021/06/28 11:23:01;;;;;;;5.50;5.00;;;32.20;99.90;;;;;;5013841;28;20481;-69
2021/06/28 11:25:38;;;;;;;4.97;4.50;;;32.10;99.90;;;;;;5032035;28;20420;-71
2021/06/28 11:28:13;;;;;;;4.30;4.00;;;31.90;99.90;;;;;;5031969;28;20424;-68
2021/06/28 11:30:51;;;;;;;4.40;3.77;;;32.10;99.90;;;;;;5032127;28;21067;-68
2021/06/28 11:33:37;;;;;;;4.20;3.80;;;32.00;99.90;;;;;;5032017;28;20798;-70
2021/06/28 11:36:27;;;;;;;3.93;3.57;;;32.10;99.90;;;;;;5031916;28;20514;-70
2021/06/28 11:38:56;;;;;;;4.00;3.70;;;32.30;99.90;;;;;;5031896;28;20418;-70
2021/06/28 11:41:26;;;;;;;3.80;3.47;;;32.50;99.90;;;;;;5031759;28;20449;-70
2021/06/28 11:43:57;;;;;;;4.80;4.40;;;32.70;99.90;;;;;;5031631;28;20864;-69
2021/06/28 11:46:27;;;;;;;4.03;3.73;;;32.70;99.90;;;;;;5032067;28;20555;-69
2021/06/28 11:48:58;;;;;;;4.00;3.60;;;32.50;99.90;;;;;;5032025;28;20915;-70
2021/06/28 11:51:28;;;;;;;3.57;3.27;;;32.60;99.90;;;;;;5030664;28;20834;-69
2021/06/28 11:53:58;;;;;;;4.47;3.80;;;32.90;99.90;;;;;;5013485;28;20805;-68
2021/06/28 11:56:33;;;;;;;7.07;6.37;;;33.00;99.90;;;;;;5031790;28;20460;-69
2021/06/28 11:59:05;;;;;;;4.43;4.03;;;32.90;99.90;;;;;;5031325;28;20490;-70
2021/06/28 12:01:35;;;;;;;4.30;4.00;;;32.80;99.90;;;;;;5013781;28;20484;-69
2021/06/28 12:04:06;;;;;;;4.10;3.80;;;32.70;99.90;;;;;;5031397;28;20435;-68
2021/06/28 12:06:35;;;;;;;3.80;3.50;;;32.30;99.90;;;;;;5032519;28;20468;-69
2021/06/28 12:09:10;;;;;;;3.43;3.13;;;32.00;99.90;;;;;;5031562;28;20945;-70
2021/06/28 12:11:48;;;;;;;4.43;4.03;;;32.30;99.90;;;;;;5031503;28;20469;-68
2021/06/28 12:14:37;;;;;;;4.10;3.80;;;32.60;99.90;;;;;;5013638;28;20448;-70
2021/06/28 12:17:11;;;;;;;3.97;3.67;;;32.90;99.90;;;;;;5031511;28;20840;-71
2021/06/28 12:19:41;;;;;;;4.80;4.30;;;32.80;99.90;;;;;;5031401;28;20518;-72
2021/06/28 12:22:11;;;;;;;4.00;3.70;;;32.90;99.90;;;;;;5031663;28;20453;-70
2021/06/28 12:24:40;;;;;;;3.50;3.20;;;32.90;99.90;;;;;;5032081;28;20456;-71
2021/06/28 12:27:11;;;;;;;3.70;3.40;;;33.00;99.90;;;;;;5032388;28;20459;-70
2021/06/28 12:29:42;;;;;;;3.90;3.60;;;33.30;99.90;;;;;;5031538;28;20963;-69
2021/06/28 12:32:14;;;;;;;4.17;3.77;;;33.50;99.90;;;;;;5031142;28;20439;-69
2021/06/28 12:34:48;;;;;;;4.27;3.87;;;33.50;99.90;;;;;;5031010;28;20956;-69
2021/06/28 12:37:22;;;;;;;4.07;3.67;;;33.60;99.90;;;;;;5014551;28;20428;-72
2021/06/28 12:39:51;;;;;;;3.83;3.53;;;33.20;99.90;;;;;;5032159;28;20490;-72
2021/06/28 12:42:21;;;;;;;4.03;3.40;;;33.00;99.90;;;;;;5032247;28;20813;-71
2021/06/28 12:44:51;;;;;;;4.40;3.57;;;32.90;99.90;;;;;;5014771;28;20813;-71
2021/06/28 12:47:21;;;;;;;4.40;4.10;;;33.30;99.90;;;;;;5031331;28;20550;-72
2021/06/28 12:49:50;;;;;;;4.33;3.93;;;33.40;99.90;;;;;;5031364;28;20840;-70
2021/06/28 12:52:35;;;;;;;4.30;3.90;;;33.30;99.90;;;;;;5030968;28;20446;-68
2021/06/28 12:55:10;;;;;;;4.40;4.00;;;33.20;99.90;;;;;;5031422;28;20489;-68
2021/06/28 12:57:41;;;;;;;4.10;3.80;;;33.20;99.90;;;;;;5032419;28;20426;-70
2021/06/28 13:00:23;;;;;;;5.00;4.47;;;33.20;99.90;;;;;;5014798;28;20431;-70
2021/06/28 13:02:54;;;;;;;4.30;3.90;;;33.60;99.90;;;;;;5031806;28;20988;-70
2021/06/28 13:05:31;;;;;;;4.10;3.70;;;33.70;99.90;;;;;;5031872;28;20554;-71